createdAt,value
2023-04-17T00:00:39.465Z,0.70
2023-04-17T00:03:06.678Z,0.70
2023-04-17T00:05:34.012Z,0.80
2023-04-17T00:08:00.951Z,1.00
2023-04-17T00:10:27.959Z,0.90
2023-04-17T00:12:55.007Z,0.70
2023-04-17T00:15:22.005Z,1.00
2023-04-17T00:17:49.032Z,1.00
2023-04-17T00:20:16.123Z,0.80
2023-04-17T00:22:43.110Z,0.80
2023-04-17T00:25:13.077Z,0.80
2023-04-17T00:27:41.522Z,0.85
2023-04-17T00:30:09.500Z,0.90
2023-04-17T00:32:36.479Z,1.00
2023-04-17T00:35:03.680Z,0.75
2023-04-17T00:37:30.813Z,0.70
2023-04-17T00:39:57.850Z,1.15
2023-04-17T00:42:24.944Z,1.02
2023-04-17T00:44:52.012Z,0.82
2023-04-17T00:47:22.357Z,0.90
2023-04-17T00:49:51.089Z,0.65
2023-04-17T00:52:28.899Z,0.80
2023-04-17T00:54:56.270Z,0.90
2023-04-17T00:57:25.137Z,0.70
2023-04-17T00:59:52.152Z,0.70
2023-04-17T01:02:19.353Z,0.80
2023-04-17T01:04:46.491Z,0.80
2023-04-17T01:07:13.663Z,0.95
2023-04-17T01:09:41.065Z,0.90
2023-04-17T01:12:19.471Z,0.98
2023-04-17T01:14:47.002Z,0.98
2023-04-17T01:17:18.994Z,0.80
2023-04-17T01:19:47.587Z,0.90
2023-04-17T01:22:18.233Z,1.00
2023-04-17T01:24:45.446Z,0.95
2023-04-17T01:27:15.483Z,0.93
2023-04-17T01:29:44.002Z,0.80
2023-04-17T01:32:11.538Z,0.88
2023-04-17T01:34:38.770Z,0.85
2023-04-17T01:37:05.849Z,0.90
2023-04-17T01:39:32.908Z,0.80
2023-04-17T01:41:59.844Z,0.82
2023-04-17T01:44:26.806Z,0.80
2023-04-17T01:46:53.755Z,0.93
2023-04-17T01:49:21.052Z,0.90
2023-04-17T01:51:48.145Z,0.80
2023-04-17T01:54:15.634Z,0.80
2023-04-17T01:56:42.790Z,0.65
2023-04-17T01:59:10.853Z,0.73
2023-04-17T02:01:38.032Z,0.68
2023-04-17T02:04:05.617Z,0.82
2023-04-17T02:06:33.083Z,0.90
2023-04-17T02:09:00.341Z,0.85
2023-04-17T02:11:27.605Z,0.73
2023-04-17T02:13:54.636Z,0.90
2023-04-17T02:16:21.871Z,0.90
2023-04-17T02:18:50.840Z,0.63
2023-04-17T02:21:17.876Z,0.75
2023-04-17T02:23:45.127Z,0.82
2023-04-17T02:26:12.411Z,0.80
2023-04-17T02:28:39.695Z,0.80
2023-04-17T02:31:09.966Z,0.88
2023-04-17T02:33:37.854Z,0.82
2023-04-17T02:36:09.428Z,1.00
2023-04-17T02:38:37.860Z,0.80
2023-04-17T02:41:05.686Z,1.10
2023-04-17T02:43:32.741Z,0.90
2023-04-17T02:45:59.816Z,0.90
2023-04-17T02:48:26.806Z,0.93
2023-04-17T02:50:53.885Z,1.02
2023-04-17T02:53:21.342Z,0.82
2023-04-17T02:55:48.351Z,0.80
2023-04-17T02:58:15.604Z,1.00
2023-04-17T03:00:42.716Z,0.90
2023-04-17T03:03:09.837Z,0.80
2023-04-17T03:05:37.110Z,1.00
2023-04-17T03:08:04.427Z,0.90
2023-04-17T03:10:31.350Z,0.80
2023-04-17T03:12:58.303Z,0.80
2023-04-17T03:15:25.315Z,0.90
2023-04-17T03:17:52.384Z,0.98
2023-04-17T03:20:19.485Z,0.82
2023-04-17T03:22:46.432Z,1.10
2023-04-17T03:25:13.432Z,0.80
2023-04-17T03:27:40.880Z,0.95
2023-04-17T03:30:08.921Z,0.73
2023-04-17T03:32:36.055Z,0.75
2023-04-17T03:35:03.045Z,0.90
2023-04-17T03:37:31.944Z,0.75
2023-04-17T03:39:58.912Z,0.88
2023-04-17T03:42:27.389Z,0.80
2023-04-17T03:44:55.557Z,0.90
2023-04-17T03:47:22.732Z,0.80
2023-04-17T03:49:49.637Z,0.88
2023-04-17T03:52:16.670Z,1.00
2023-04-17T03:54:48.998Z,0.80
2023-04-17T03:57:16.289Z,1.02
2023-04-17T03:59:43.323Z,0.95
2023-04-17T04:02:10.457Z,0.93
2023-04-17T04:04:37.611Z,1.08
2023-04-17T04:07:04.688Z,0.90
2023-04-17T04:09:31.555Z,1.10
2023-04-17T04:11:58.719Z,0.95
2023-04-17T04:14:25.671Z,0.80
2023-04-17T04:16:52.898Z,0.80
2023-04-17T04:19:19.941Z,1.00
2023-04-17T04:21:46.836Z,0.82
2023-04-17T04:24:14.467Z,0.70
2023-04-17T04:26:42.269Z,0.90
2023-04-17T04:29:11.903Z,1.00
2023-04-17T04:31:39.652Z,0.90
2023-04-17T04:34:07.866Z,0.80
2023-04-17T04:36:42.015Z,0.70
2023-04-17T04:39:09.926Z,0.82
2023-04-17T04:41:38.352Z,0.85
2023-04-17T04:44:05.627Z,0.90
2023-04-17T04:46:32.652Z,0.93
2023-04-17T04:48:59.679Z,0.88
2023-04-17T04:51:26.885Z,0.70
2023-04-17T04:53:53.962Z,0.90
2023-04-17T04:56:21.413Z,0.90
2023-04-17T04:58:48.523Z,0.70
2023-04-17T05:01:18.790Z,1.00
2023-04-17T05:03:46.018Z,1.00
2023-04-17T05:06:13.903Z,0.90
2023-04-17T05:08:41.535Z,0.98
2023-04-17T05:11:08.860Z,1.10
2023-04-17T05:13:35.756Z,1.10
2023-04-17T05:16:02.825Z,0.80
2023-04-17T05:18:29.874Z,1.08
2023-04-17T05:20:56.884Z,0.85
2023-04-17T05:23:24.084Z,1.08
2023-04-17T05:25:51.366Z,1.00
2023-04-17T05:28:18.447Z,1.13
2023-04-17T05:30:46.088Z,0.98
2023-04-17T05:33:13.305Z,1.00
2023-04-17T05:35:40.408Z,0.90
2023-04-17T05:38:08.118Z,1.02
2023-04-17T05:40:35.570Z,0.90
2023-04-17T05:43:10.629Z,1.20
2023-04-17T05:45:38.318Z,1.10
2023-04-17T05:48:05.899Z,0.90
2023-04-17T05:50:33.201Z,0.90
2023-04-17T05:53:00.337Z,0.85
2023-04-17T05:55:27.339Z,0.98
2023-04-17T05:57:56.230Z,0.77
2023-04-17T06:00:25.053Z,0.93
2023-04-17T06:02:52.689Z,0.95
2023-04-17T06:05:19.941Z,1.00
2023-04-17T06:07:47.145Z,1.38
2023-04-17T06:10:14.259Z,1.15
2023-04-17T06:12:41.261Z,1.23
2023-04-17T06:15:12.006Z,1.55
2023-04-17T06:17:40.174Z,1.40
2023-04-17T06:20:12.388Z,1.38
2023-04-17T06:22:44.453Z,2.00
2023-04-17T06:25:11.654Z,2.03
2023-04-17T06:27:38.737Z,2.08
2023-04-17T06:30:06.872Z,2.00
2023-04-17T06:32:34.014Z,1.90
2023-04-17T06:35:01.224Z,2.05
2023-04-17T06:37:31.174Z,2.30
2023-04-17T06:39:58.108Z,2.17
2023-04-17T06:42:25.055Z,2.53
2023-04-17T06:44:52.086Z,3.38
2023-04-17T06:47:21.171Z,2.58
2023-04-17T06:49:48.103Z,2.80
2023-04-17T06:52:15.140Z,3.22
2023-04-17T06:54:42.023Z,3.70
2023-04-17T06:57:10.775Z,3.13
2023-04-17T06:59:38.658Z,2.80
2023-04-17T07:02:06.262Z,2.70
2023-04-17T07:04:36.493Z,3.05
2023-04-17T07:07:03.650Z,2.95
2023-04-17T07:09:30.683Z,3.00
2023-04-17T07:11:58.264Z,2.95
2023-04-17T07:14:28.666Z,3.00
2023-04-17T07:16:56.042Z,3.25
2023-04-17T07:19:23.084Z,3.45
2023-04-17T07:21:50.039Z,3.53
2023-04-17T07:24:16.878Z,4.13
2023-04-17T07:26:43.991Z,4.00
2023-04-17T07:29:11.537Z,3.70
2023-04-17T07:31:39.342Z,4.32
2023-04-17T07:34:06.468Z,3.65
2023-04-17T07:36:33.614Z,3.78
2023-04-17T07:39:00.569Z,4.40
2023-04-17T07:41:27.587Z,4.43
2023-04-17T07:43:59.084Z,4.07
2023-04-17T07:46:26.614Z,3.78
2023-04-17T07:48:53.620Z,4.10
2023-04-17T07:51:20.724Z,3.63
2023-04-17T07:53:47.934Z,3.80
2023-04-17T07:56:15.080Z,4.05
2023-04-17T07:58:42.449Z,3.83
2023-04-17T08:01:09.410Z,4.13
2023-04-17T08:03:36.755Z,3.70
2023-04-17T08:06:04.561Z,3.50
2023-04-17T08:08:31.562Z,4.40
2023-04-17T08:10:58.650Z,4.82
2023-04-17T08:13:32.457Z,4.40
2023-04-17T08:15:59.733Z,4.32
2023-04-17T08:18:26.679Z,3.92
2023-04-17T08:20:54.022Z,4.50
2023-04-17T08:23:24.406Z,4.22
2023-04-17T08:25:51.569Z,4.20
2023-04-17T08:28:18.587Z,4.03
2023-04-17T08:30:45.899Z,4.40
2023-04-17T08:33:17.128Z,4.05
2023-04-17T08:35:45.053Z,4.22
2023-04-17T08:38:14.177Z,3.95
2023-04-17T08:40:49.643Z,4.03
2023-04-17T08:43:19.701Z,4.47
2023-04-17T08:45:54.157Z,4.43
2023-04-17T08:48:25.086Z,4.40
2023-04-17T08:50:54.076Z,4.32
2023-04-17T08:53:21.905Z,4.47
2023-04-17T08:55:49.612Z,4.25
2023-04-17T08:58:17.825Z,4.10
2023-04-17T09:00:45.750Z,4.28
2023-04-17T09:03:14.826Z,4.47
2023-04-17T09:05:45.945Z,4.47
2023-04-17T09:08:26.845Z,4.68
2023-04-17T09:10:55.893Z,4.40
2023-04-17T09:13:25.699Z,4.30
2023-04-17T09:16:11.063Z,4.30
2023-04-17T09:18:40.095Z,4.20
2023-04-17T09:21:09.476Z,4.30
2023-04-17T09:23:59.857Z,3.97
2023-04-17T09:26:34.540Z,4.30
2023-04-17T09:29:11.871Z,3.58
2023-04-17T09:31:42.933Z,4.20
2023-04-17T09:34:15.580Z,3.40
2023-04-17T09:36:44.414Z,4.07
2023-04-17T09:39:25.669Z,3.90
2023-04-17T09:42:04.395Z,3.65
2023-04-17T09:44:32.097Z,3.65
2023-04-17T09:47:01.395Z,3.22
2023-04-17T09:49:42.800Z,3.70
2023-04-17T09:52:10.085Z,3.78
2023-04-17T09:54:39.632Z,4.03
2023-04-17T09:57:14.198Z,3.22
2023-04-17T09:59:45.087Z,3.40
2023-04-17T10:02:17.866Z,3.47
2023-04-17T10:04:49.728Z,3.20
2023-04-17T10:07:17.963Z,3.20
2023-04-17T10:09:48.234Z,3.40
2023-04-17T10:12:18.473Z,3.25
2023-04-17T10:14:49.708Z,3.28
2023-04-17T10:17:37.484Z,3.38
2023-04-17T10:20:23.239Z,3.47
2023-04-17T10:22:54.366Z,3.20
2023-04-17T10:25:26.257Z,3.30
2023-04-17T10:28:02.920Z,3.47
2023-04-17T10:30:55.523Z,2.90
2023-04-17T10:33:27.478Z,3.93
2023-04-17T10:35:55.805Z,3.00
2023-04-17T10:38:41.401Z,3.10
2023-04-17T10:41:11.569Z,3.35
2023-04-17T10:43:44.409Z,3.85
2023-04-17T10:46:15.266Z,3.05
2023-04-17T10:48:53.898Z,3.13
2023-04-17T10:51:25.277Z,3.28
2023-04-17T10:54:10.382Z,3.22
2023-04-17T10:56:49.354Z,3.03
2023-04-17T10:59:19.383Z,3.65
2023-04-17T11:01:49.455Z,3.72
2023-04-17T11:04:20.672Z,4.45
2023-04-17T11:06:48.722Z,5.65
2023-04-17T11:09:21.041Z,4.45
2023-04-17T11:11:48.050Z,4.75
2023-04-17T11:14:20.260Z,5.13
2023-04-17T11:16:51.418Z,5.68
2023-04-17T11:19:21.393Z,5.13
2023-04-17T11:21:54.092Z,4.90
2023-04-17T11:24:32.310Z,4.90
2023-04-17T11:27:01.517Z,5.95
2023-04-17T11:29:29.234Z,4.68
2023-04-17T11:31:58.204Z,4.28
2023-04-17T11:34:31.351Z,4.47
2023-04-17T11:37:01.240Z,4.22
2023-04-17T11:39:37.403Z,4.55
2023-04-17T11:42:05.644Z,5.45
2023-04-17T11:44:32.761Z,4.80
2023-04-17T11:47:02.198Z,4.70
2023-04-17T11:49:41.051Z,4.70
2023-04-17T11:52:08.337Z,5.20
2023-04-17T11:54:37.901Z,4.65
2023-04-17T11:57:09.538Z,4.30
2023-04-17T11:59:42.422Z,4.00
2023-04-17T12:02:10.474Z,3.92
2023-04-17T12:04:39.904Z,3.58
2023-04-17T12:07:21.170Z,3.75
2023-04-17T12:09:59.363Z,3.72
2023-04-17T12:12:27.201Z,4.40
2023-04-17T12:14:54.404Z,4.18
2023-04-17T12:17:21.556Z,3.95
2023-04-17T12:19:52.002Z,4.00
2023-04-17T12:22:19.471Z,4.18
2023-04-17T12:24:46.943Z,4.70
2023-04-17T12:27:14.356Z,4.38
2023-04-17T12:29:44.567Z,4.05
2023-04-17T12:32:12.467Z,4.50
2023-04-17T12:34:40.574Z,3.60
2023-04-17T12:37:07.859Z,4.05
2023-04-17T12:39:35.789Z,4.00
2023-04-17T12:42:03.097Z,4.32
2023-04-17T12:44:30.303Z,4.22
2023-04-17T12:46:57.636Z,3.90
2023-04-17T12:49:24.979Z,4.40
2023-04-17T12:51:52.038Z,3.78
2023-04-17T12:54:22.487Z,4.47
2023-04-17T12:56:49.682Z,4.72
2023-04-17T12:59:16.770Z,4.15
2023-04-17T13:01:43.703Z,4.75
2023-04-17T13:04:11.365Z,4.25
2023-04-17T13:06:38.697Z,4.70
2023-04-17T13:09:06.266Z,4.70
2023-04-17T13:11:33.332Z,4.13
2023-04-17T13:14:00.673Z,4.22
2023-04-17T13:16:28.074Z,4.35
2023-04-17T13:18:55.081Z,4.57
2023-04-17T13:21:25.254Z,4.40
2023-04-17T13:23:52.321Z,4.57
2023-04-17T13:26:20.439Z,4.38
2023-04-17T13:28:47.654Z,4.90
2023-04-17T13:31:15.282Z,4.63
2023-04-17T13:33:42.923Z,4.40
2023-04-17T13:36:10.147Z,4.20
2023-04-17T13:38:37.197Z,4.85
2023-04-17T13:41:04.487Z,4.93
2023-04-17T13:43:31.931Z,6.07
2023-04-17T13:45:58.976Z,5.35
2023-04-17T13:48:26.235Z,4.70
2023-04-17T13:50:54.463Z,4.15
2023-04-17T13:53:21.813Z,4.60
2023-04-17T13:55:53.339Z,4.85
2023-04-17T13:58:20.632Z,5.10
2023-04-17T14:00:48.240Z,5.28
2023-04-17T14:03:15.751Z,5.10
2023-04-17T14:05:43.185Z,4.45
2023-04-17T14:08:10.671Z,5.22
2023-04-17T14:10:37.793Z,4.53
2023-04-17T14:13:04.883Z,4.30
2023-04-17T14:15:32.366Z,4.70
2023-04-17T14:17:59.797Z,4.60
2023-04-17T14:20:26.956Z,4.70
2023-04-17T14:22:54.687Z,4.32
2023-04-17T14:25:22.743Z,4.70
2023-04-17T14:27:49.879Z,4.53
2023-04-17T14:30:17.043Z,4.53
2023-04-17T14:32:46.682Z,4.32
2023-04-17T14:35:16.956Z,4.20
2023-04-17T14:37:44.344Z,4.15
2023-04-17T14:40:12.176Z,4.07
2023-04-17T14:42:51.095Z,4.55
2023-04-17T14:45:23.288Z,4.40
2023-04-17T14:47:53.888Z,3.85
2023-04-17T14:50:21.385Z,4.50
2023-04-17T14:52:48.730Z,4.18
2023-04-17T14:55:19.220Z,4.47
2023-04-17T14:57:46.336Z,3.83
2023-04-17T15:00:14.190Z,3.83
2023-04-17T15:02:43.662Z,4.32
2023-04-17T15:05:11.169Z,4.22
2023-04-17T15:07:38.303Z,3.97
2023-04-17T15:10:06.069Z,4.05
2023-04-17T15:12:33.511Z,3.97
2023-04-17T15:15:00.595Z,4.53
2023-04-17T15:17:27.572Z,4.03
2023-04-17T15:19:57.415Z,4.35
2023-04-17T15:22:29.014Z,4.75
2023-04-17T15:24:56.005Z,4.38
2023-04-17T15:27:23.499Z,4.22
2023-04-17T15:29:50.789Z,4.20
2023-04-17T15:32:18.226Z,4.05
2023-04-17T15:34:45.485Z,4.50
2023-04-17T15:37:12.684Z,3.88
2023-04-17T15:39:40.583Z,3.97
2023-04-17T15:42:09.540Z,3.50
2023-04-17T15:44:37.929Z,3.70
2023-04-17T15:47:05.883Z,3.15
2023-04-17T15:49:33.417Z,3.17
2023-04-17T15:52:00.662Z,3.22
2023-04-17T15:54:30.617Z,3.55
2023-04-17T15:56:57.917Z,3.25
2023-04-17T15:59:25.404Z,2.80
2023-04-17T16:01:53.888Z,3.28
2023-04-17T16:04:21.489Z,3.08
2023-04-17T16:06:48.676Z,3.28
2023-04-17T16:09:20.061Z,3.08
2023-04-17T16:11:48.750Z,3.25
2023-04-17T16:14:16.030Z,2.90
2023-04-17T16:16:43.101Z,3.00
2023-04-17T16:19:10.738Z,2.58
2023-04-17T16:21:38.580Z,2.78
2023-04-17T16:24:05.763Z,2.85
2023-04-17T16:26:32.877Z,2.63
2023-04-17T16:28:59.946Z,2.70
2023-04-17T16:31:28.017Z,3.25
2023-04-17T16:33:56.063Z,3.10
2023-04-17T16:36:23.183Z,2.90
2023-04-17T16:38:50.287Z,2.50
2023-04-17T16:41:18.357Z,2.35
2023-04-17T16:43:45.311Z,2.50
2023-04-17T16:46:23.899Z,2.58
2023-04-17T16:48:59.011Z,2.33
2023-04-17T16:51:27.174Z,2.40
2023-04-17T16:53:54.282Z,2.38
2023-04-17T16:56:21.309Z,2.63
2023-04-17T16:58:48.337Z,2.17
2023-04-17T17:01:15.531Z,2.30
2023-04-17T17:03:43.322Z,2.47
2023-04-17T17:06:11.149Z,2.40
2023-04-17T17:08:38.939Z,2.42
2023-04-17T17:11:06.477Z,2.60
2023-04-17T17:13:33.458Z,2.47
2023-04-17T17:16:00.512Z,2.17
2023-04-17T17:18:27.808Z,2.13
2023-04-17T17:20:56.303Z,2.20
2023-04-17T17:23:23.270Z,2.40
2023-04-17T17:25:50.638Z,2.28
2023-04-17T17:28:17.957Z,2.22
2023-04-17T17:30:44.887Z,2.20
2023-04-17T17:33:12.259Z,2.42
2023-04-17T17:35:39.291Z,2.35
2023-04-17T17:38:10.087Z,2.40
2023-04-17T17:40:37.960Z,2.05
2023-04-17T17:43:05.207Z,2.45
2023-04-17T17:45:32.194Z,2.10
2023-04-17T17:47:59.116Z,2.60
2023-04-17T17:50:26.129Z,2.15
2023-04-17T17:52:53.076Z,2.10
2023-04-17T17:55:20.436Z,2.45
2023-04-17T17:57:49.662Z,2.22
2023-04-17T18:00:17.530Z,2.00
2023-04-17T18:02:44.753Z,2.15
2023-04-17T18:05:11.901Z,2.20
2023-04-17T18:07:40.969Z,2.20
2023-04-17T18:10:09.046Z,2.25
2023-04-17T18:12:36.008Z,2.22
2023-04-17T18:15:03.367Z,1.92
2023-04-17T18:17:30.542Z,2.15
2023-04-17T18:19:57.810Z,1.88
2023-04-17T18:22:24.824Z,2.10
2023-04-17T18:24:55.431Z,2.28
2023-04-17T18:27:23.216Z,2.13
2023-04-17T18:29:50.158Z,1.77
2023-04-17T18:32:18.122Z,2.17
2023-04-17T18:34:49.148Z,2.10
2023-04-17T18:37:18.140Z,2.05
2023-04-17T18:39:45.440Z,1.85
2023-04-17T18:42:12.668Z,1.70
2023-04-17T18:44:40.046Z,1.90
2023-04-17T18:47:07.054Z,1.95
2023-04-17T18:49:34.208Z,2.10
2023-04-17T18:52:01.783Z,1.83
2023-04-17T18:54:29.215Z,1.60
2023-04-17T18:56:57.237Z,1.63
2023-04-17T18:59:26.187Z,1.67
2023-04-17T19:01:53.183Z,1.50
2023-04-17T19:04:21.061Z,1.67
2023-04-17T19:06:48.057Z,1.83
2023-04-17T19:09:15.146Z,2.08
2023-04-17T19:11:42.666Z,1.80
2023-04-17T19:14:09.664Z,2.38
2023-04-17T19:16:36.761Z,1.67
2023-04-17T19:19:05.583Z,1.45
2023-04-17T19:21:32.963Z,1.80
2023-04-17T19:24:00.392Z,1.80
2023-04-17T19:26:27.408Z,1.65
2023-04-17T19:28:55.869Z,1.52
2023-04-17T19:31:22.929Z,1.52
2023-04-17T19:33:49.977Z,2.00
2023-04-17T19:36:16.940Z,1.80
2023-04-17T19:38:44.018Z,1.75
2023-04-17T19:41:29.197Z,1.70
2023-04-17T19:43:56.189Z,1.60
2023-04-17T19:46:24.561Z,1.65
2023-04-17T19:48:52.458Z,1.50
2023-04-17T19:51:19.677Z,1.48
2023-04-17T19:53:48.137Z,1.63
2023-04-17T19:56:15.607Z,1.50
2023-04-17T19:58:42.784Z,1.50
2023-04-17T20:01:09.895Z,1.42
2023-04-17T20:03:39.412Z,1.70
2023-04-17T20:06:07.993Z,1.25
2023-04-17T20:08:35.059Z,1.55
2023-04-17T20:11:02.252Z,1.48
2023-04-17T20:13:29.408Z,1.30
2023-04-17T20:15:56.438Z,1.30
2023-04-17T20:18:23.617Z,1.50
2023-04-17T20:20:50.653Z,1.33
2023-04-17T20:23:17.596Z,1.40
2023-04-17T20:25:47.211Z,1.60
2023-04-17T20:28:14.285Z,1.40
2023-04-17T20:30:41.486Z,1.30
2023-04-17T20:33:08.529Z,1.42
2023-04-17T20:35:35.692Z,1.33
2023-04-17T20:38:02.877Z,1.30
2023-04-17T20:40:29.837Z,1.23
2023-04-17T20:42:56.893Z,1.40
2023-04-17T20:45:23.866Z,1.33
2023-04-17T20:50:23.453Z,1.00
2023-04-17T20:52:50.601Z,1.38
2023-04-17T20:55:19.651Z,1.40
2023-04-17T20:57:47.418Z,1.30
2023-04-17T21:00:14.949Z,1.25
2023-04-17T21:02:43.547Z,1.30
2023-04-17T21:05:10.822Z,1.30
2023-04-17T21:07:38.293Z,1.30
2023-04-17T21:10:06.249Z,1.30
2023-04-17T21:12:35.217Z,1.50
2023-04-17T21:15:02.798Z,1.13
2023-04-17T21:17:29.870Z,0.98
2023-04-17T21:19:57.013Z,1.00
2023-04-17T21:22:24.040Z,1.27
2023-04-17T21:24:51.340Z,1.10
2023-04-17T21:27:18.339Z,1.27
2023-04-17T21:29:45.304Z,1.15
2023-04-17T21:32:12.388Z,1.02
2023-04-17T21:34:39.731Z,1.10
2023-04-17T21:37:06.857Z,1.20
2023-04-17T21:39:33.822Z,1.35
2023-04-17T21:42:01.986Z,1.05
2023-04-17T21:44:29.062Z,1.17
2023-04-17T21:46:56.070Z,1.08
2023-04-17T21:49:23.781Z,1.30
2023-04-17T21:51:51.024Z,1.17
2023-04-17T21:54:18.086Z,1.20
2023-04-17T21:56:45.551Z,1.05
2023-04-17T21:59:12.510Z,1.13
2023-04-17T22:01:39.662Z,1.02
2023-04-17T22:04:06.826Z,1.00
2023-04-17T22:06:37.479Z,1.00
2023-04-17T22:09:05.089Z,0.93
2023-04-17T22:11:32.324Z,1.20
2023-04-17T22:13:59.383Z,1.02
2023-04-17T22:16:26.723Z,1.15
2023-04-17T22:18:54.291Z,1.15
2023-04-17T22:21:21.324Z,1.10
2023-04-17T22:23:48.316Z,1.15
2023-04-17T22:26:15.545Z,1.27
2023-04-17T22:28:42.531Z,0.98
2023-04-17T22:31:10.298Z,1.15
2023-04-17T22:33:37.997Z,1.00
2023-04-17T22:36:05.032Z,1.10
2023-04-17T22:38:32.331Z,1.05
2023-04-17T22:40:59.744Z,0.93
2023-04-17T22:43:26.718Z,1.17
2023-04-17T22:45:53.780Z,1.20
2023-04-17T22:48:23.911Z,1.10
2023-04-17T22:50:51.404Z,1.17
2023-04-17T22:53:18.456Z,1.00
2023-04-17T22:55:45.606Z,1.00
2023-04-17T22:58:12.565Z,1.00
2023-04-17T23:00:39.536Z,0.90
2023-04-17T23:03:06.802Z,1.00
2023-04-17T23:05:33.805Z,0.85
2023-04-17T23:08:00.910Z,1.10
2023-04-17T23:10:27.837Z,0.90
2023-04-17T23:12:54.779Z,1.10
2023-04-17T23:15:22.134Z,1.02
2023-04-17T23:17:49.037Z,1.25
2023-04-17T23:20:16.114Z,0.98
2023-04-17T23:22:43.169Z,1.15
2023-04-17T23:25:10.441Z,0.90
2023-04-17T23:27:37.499Z,1.08
2023-04-17T23:30:05.072Z,1.13
2023-04-17T23:32:32.040Z,1.00
2023-04-17T23:34:59.052Z,1.10
2023-04-17T23:37:26.419Z,1.00
2023-04-17T23:39:53.389Z,1.05
2023-04-17T23:42:20.521Z,1.15
2023-04-17T23:44:47.766Z,1.10
2023-04-17T23:47:14.726Z,1.00
2023-04-17T23:49:41.728Z,1.02
2023-04-17T23:52:09.353Z,1.05
2023-04-17T23:54:36.362Z,1.00
2023-04-17T23:57:03.689Z,0.80
2023-04-17T23:59:30.674Z,1.17
